Weather at Zhuzi Shan Helipad

Public forecast

Using degrees Celsius for public forecast. Weather courtesy of forecast.io.

Closest aviation weather report (METAR) to Zhuzi Shan Helipad

Closest report is Taipei Songshan Airport, 8.8 nm (16.3 km) S. Retrieved 2021/01/28 00:30 UTC (14 minutes ago):

RCSS 280030Z 30006KT 260V330 8000 FEW010 BKN020 BKN045 18/16 Q1021 NOSIG RMK A3017

Closest aviation forecast (TAF) to Zhuzi Shan Helipad

Closest forecast is Taipei Songshan Airport, 8.8 nm (16.3 km) S. Retrieved 2021-01-28 00:00 UTC (44 minutes ago):

TAF RCSS 272300Z 2800/2824 09005KT 9999 FEW015 BKN032 BKN060 TEMPO 2800/2804 31005KT FEW012 BKN022 BKN050 TEMPO 2806/2810 08015KT BECMG 2810/2812 09012KT TEMPO 2818/2824 07005KT